sensor_id;sensor_type;location;lat;lon;timestamp;pressure;altitude;pressure_sealevel;temperature;humidity
56928;BME280;60850;52.502;13.426;2022-11-15T00:01:19;101134.66;;;5.07;100.00
56928;BME280;60850;52.502;13.426;2022-11-15T00:03:50;101130.25;;;5.02;100.00
56928;BME280;60850;52.502;13.426;2022-11-15T00:08:00;101132.84;;;4.91;100.00
56928;BME280;60850;52.502;13.426;2022-11-15T00:10:27;101132.84;;;4.91;100.00
56928;BME280;60850;52.502;13.426;2022-11-15T00:12:54;101128.44;;;4.90;100.00
56928;BME280;60850;52.502;13.426;2022-11-15T00:15:21;101127.56;;;4.91;100.00
56928;BME280;60850;52.502;13.426;2022-11-15T00:17:48;101118.75;;;4.90;100.00
56928;BME280;60850;52.502;13.426;2022-11-15T00:20:16;101113.47;;;4.89;100.00
56928;BME280;60850;52.502;13.426;2022-11-15T00:22:43;101108.19;;;4.87;100.00
56928;BME280;60850;52.502;13.426;2022-11-15T00:25:12;101108.19;;;4.83;100.00
56928;BME280;60850;52.502;13.426;2022-11-15T00:27:38;101108.16;;;4.86;100.00
56928;BME280;60850;52.502;13.426;2022-11-15T00:30:06;101099.38;;;4.84;100.00
56928;BME280;60850;52.502;13.426;2022-11-15T00:32:33;101105.53;;;4.84;100.00
56928;BME280;60850;52.502;13.426;2022-11-15T00:35:00;101102.03;;;4.88;100.00
56928;BME280;60850;52.502;13.426;2022-11-15T00:37:27;101101.16;;;4.91;100.00
56928;BME280;60850;52.502;13.426;2022-11-15T00:39:54;101097.59;;;4.86;100.00
56928;BME280;60850;52.502;13.426;2022-11-15T00:42:22;101096.72;;;4.82;100.00
56928;BME280;60850;52.502;13.426;2022-11-15T00:44:49;101096.75;;;4.79;100.00
56928;BME280;60850;52.502;13.426;2022-11-15T00:47:16;101094.06;;;4.75;100.00
56928;BME280;60850;52.502;13.426;2022-11-15T00:49:43;101087.84;;;4.63;100.00
56928;BME280;60850;52.502;13.426;2022-11-15T00:52:10;101089.63;;;4.60;100.00
56928;BME280;60850;52.502;13.426;2022-11-15T00:54:37;101085.22;;;4.63;100.00
56928;BME280;60850;52.502;13.426;2022-11-15T00:57:04;101084.38;;;4.66;100.00
56928;BME280;60850;52.502;13.426;2022-11-15T00:59:32;101081.69;;;4.64;100.00
56928;BME280;60850;52.502;13.426;2022-11-15T01:01:59;101084.38;;;4.69;100.00
56928;BME280;60850;52.502;13.426;2022-11-15T01:04:27;101075.53;;;4.64;100.00
56928;BME280;60850;52.502;13.426;2022-11-15T01:06:54;101080.81;;;4.64;100.00
56928;BME280;60850;52.502;13.426;2022-11-15T01:09:21;101080.81;;;4.61;100.00
56928;BME280;60850;52.502;13.426;2022-11-15T01:11:48;101073.78;;;4.63;100.00
56928;BME280;60850;52.502;13.426;2022-11-15T01:14:15;101079.03;;;4.54;100.00
56928;BME280;60850;52.502;13.426;2022-11-15T01:16:43;101072.88;;;4.53;100.00
56928;BME280;60850;52.502;13.426;2022-11-15T01:19:10;101080.78;;;4.53;100.00
56928;BME280;60850;52.502;13.426;2022-11-15T01:21:37;101072.00;;;4.57;100.00
56928;BME280;60850;52.502;13.426;2022-11-15T01:24:04;101059.66;;;4.58;100.00
56928;BME280;60850;52.502;13.426;2022-11-15T01:26:31;101057.88;;;4.51;100.00
56928;BME280;60850;52.502;13.426;2022-11-15T01:28:58;101061.41;;;4.50;100.00
56928;BME280;60850;52.502;13.426;2022-11-15T01:31:25;101056.16;;;4.53;100.00
56928;BME280;60850;52.502;13.426;2022-11-15T01:33:54;101054.38;;;4.50;100.00
56928;BME280;60850;52.502;13.426;2022-11-15T01:36:21;101053.50;;;4.47;100.00
56928;BME280;60850;52.502;13.426;2022-11-15T01:38:53;101041.19;;;4.44;100.00
56928;BME280;60850;52.502;13.426;2022-11-15T01:41:23;101048.22;;;4.45;100.00
56928;BME280;60850;52.502;13.426;2022-11-15T01:43:53;101042.94;;;4.45;100.00
56928;BME280;60850;52.502;13.426;2022-11-15T01:46:29;101043.78;;;4.43;100.00
56928;BME280;60850;52.502;13.426;2022-11-15T01:49:01;101040.25;;;4.44;100.00
56928;BME280;60850;52.502;13.426;2022-11-15T01:51:31;101027.06;;;4.44;100.00
56928;BME280;60850;52.502;13.426;2022-11-15T01:54:02;101016.50;;;4.42;100.00
56928;BME280;60850;52.502;13.426;2022-11-15T01:56:35;101015.63;;;4.41;100.00
56928;BME280;60850;52.502;13.426;2022-11-15T01:59:06;101017.38;;;4.43;100.00
56928;BME280;60850;52.502;13.426;2022-11-15T02:01:34;101017.41;;;4.38;100.00
56928;BME280;60850;52.502;13.426;2022-11-15T02:04:07;101011.25;;;4.37;100.00
56928;BME280;60850;52.502;13.426;2022-11-15T02:06:37;101005.06;;;4.38;100.00
56928;BME280;60850;52.502;13.426;2022-11-15T02:09:05;101008.59;;;4.40;100.00
56928;BME280;60850;52.502;13.426;2022-11-15T02:11:32;101005.06;;;4.41;100.00
56928;BME280;60850;52.502;13.426;2022-11-15T02:14:01;101010.34;;;4.40;100.00
56928;BME280;60850;52.502;13.426;2022-11-15T02:16:38;101007.72;;;4.37;100.00
56928;BME280;60850;52.502;13.426;2022-11-15T02:19:27;101004.19;;;4.43;100.00
56928;BME280;60850;52.502;13.426;2022-11-15T02:22:04;101006.84;;;4.39;100.00
56928;BME280;60850;52.502;13.426;2022-11-15T02:24:58;101007.69;;;4.35;100.00
56928;BME280;60850;52.502;13.426;2022-11-15T02:30:41;101002.44;;;4.38;100.00
56928;BME280;60850;52.502;13.426;2022-11-15T02:33:23;101003.31;;;4.40;100.00
56928;BME280;60850;52.502;13.426;2022-11-15T02:35:58;101000.66;;;4.36;100.00
56928;BME280;60850;52.502;13.426;2022-11-15T02:38:32;101002.41;;;4.34;100.00
56928;BME280;60850;52.502;13.426;2022-11-15T02:41:07;101008.56;;;4.34;100.00
56928;BME280;60850;52.502;13.426;2022-11-15T02:43:38;101005.94;;;4.33;100.00
56928;BME280;60850;52.502;13.426;2022-11-15T02:46:29;101003.28;;;4.31;100.00
56928;BME280;60850;52.502;13.426;2022-11-15T02:49:16;100998.91;;;4.32;100.00
56928;BME280;60850;52.502;13.426;2022-11-15T02:51:45;100996.22;;;4.27;100.00
56928;BME280;60850;52.502;13.426;2022-11-15T02:54:17;100992.72;;;4.28;100.00
56928;BME280;60850;52.502;13.426;2022-11-15T02:56:47;100989.19;;;4.26;100.00
56928;BME280;60850;52.502;13.426;2022-11-15T02:59:27;100979.50;;;4.21;100.00
56928;BME280;60850;52.502;13.426;2022-11-15T03:02:10;100990.03;;;4.22;100.00
56928;BME280;60850;52.502;13.426;2022-11-15T03:04:44;100983.91;;;4.23;100.00
56928;BME280;60850;52.502;13.426;2022-11-15T03:07:17;100979.50;;;4.30;100.00
56928;BME280;60850;52.502;13.426;2022-11-15T03:09:51;100983.06;;;4.30;100.00
56928;BME280;60850;52.502;13.426;2022-11-15T03:12:25;100981.28;;;4.26;100.00
56928;BME280;60850;52.502;13.426;2022-11-15T03:14:58;100983.91;;;4.26;100.00
56928;BME280;60850;52.502;13.426;2022-11-15T03:17:30;100975.13;;;4.24;100.00
56928;BME280;60850;52.502;13.426;2022-11-15T03:20:02;100981.31;;;4.31;100.00
56928;BME280;60850;52.502;13.426;2022-11-15T03:22:35;100986.59;;;4.31;100.00
56928;BME280;60850;52.502;13.426;2022-11-15T03:25:06;100984.81;;;4.33;100.00
56928;BME280;60850;52.502;13.426;2022-11-15T03:27:37;100978.63;;;4.29;100.00
56928;BME280;60850;52.502;13.426;2022-11-15T03:30:07;100988.34;;;4.35;100.00
56928;BME280;60850;52.502;13.426;2022-11-15T03:32:39;100983.94;;;4.32;100.00
56928;BME280;60850;52.502;13.426;2022-11-15T03:35:11;100976.91;;;4.33;100.00
56928;BME280;60850;52.502;13.426;2022-11-15T03:37:42;100977.78;;;4.35;100.00
56928;BME280;60850;52.502;13.426;2022-11-15T03:40:11;100975.16;;;4.32;100.00
56928;BME280;60850;52.502;13.426;2022-11-15T03:42:42;100985.69;;;4.27;100.00
56928;BME280;60850;52.502;13.426;2022-11-15T03:45:15;100979.50;;;4.30;100.00
56928;BME280;60850;52.502;13.426;2022-11-15T03:47:48;100971.59;;;4.28;100.00
56928;BME280;60850;52.502;13.426;2022-11-15T03:50:17;100976.88;;;4.28;100.00
56928;BME280;60850;52.502;13.426;2022-11-15T03:52:47;100976.03;;;4.31;100.00
56928;BME280;60850;52.502;13.426;2022-11-15T03:55:17;100968.97;;;4.34;100.00
56928;BME280;60850;52.502;13.426;2022-11-15T03:57:46;100963.72;;;4.33;100.00
56928;BME280;60850;52.502;13.426;2022-11-15T04:00:14;100968.09;;;4.32;100.00
56928;BME280;60850;52.502;13.426;2022-11-15T04:02:42;100964.56;;;4.36;100.00
56928;BME280;60850;52.502;13.426;2022-11-15T04:05:10;100966.34;;;4.34;100.00
56928;BME280;60850;52.502;13.426;2022-11-15T04:07:37;100965.47;;;4.35;100.00
56928;BME280;60850;52.502;13.426;2022-11-15T04:10:05;100954.03;;;4.33;100.00
56928;BME280;60850;52.502;13.426;2022-11-15T04:12:34;100960.19;;;4.32;100.00
56928;BME280;60850;52.502;13.426;2022-11-15T04:15:03;100956.66;;;4.35;100.00
56928;BME280;60850;52.502;13.426;2022-11-15T04:17:35;100956.66;;;4.30;100.00
56928;BME280;60850;52.502;13.426;2022-11-15T04:20:03;100954.91;;;4.23;100.00
56928;BME280;60850;52.502;13.426;2022-11-15T04:22:52;100954.00;;;4.27;100.00
56928;BME280;60850;52.502;13.426;2022-11-15T04:25:36;100947.84;;;4.28;100.00
56928;BME280;60850;52.502;13.426;2022-11-15T04:28:03;100952.25;;;4.29;100.00
56928;BME280;60850;52.502;13.426;2022-11-15T04:30:30;100954.00;;;4.27;100.00
56928;BME280;60850;52.502;13.426;2022-11-15T04:32:58;100956.66;;;4.27;100.00
56928;BME280;60850;52.502;13.426;2022-11-15T04:35:24;100952.25;;;4.23;100.00
56928;BME280;60850;52.502;13.426;2022-11-15T04:37:53;100950.47;;;4.19;100.00
56928;BME280;60850;52.502;13.426;2022-11-15T04:40:19;100943.44;;;4.20;100.00
56928;BME280;60850;52.502;13.426;2022-11-15T04:42:46;100951.38;;;4.26;100.00
56928;BME280;60850;52.502;13.426;2022-11-15T04:45:13;100952.25;;;4.26;100.00
56928;BME280;60850;52.502;13.426;2022-11-15T04:47:43;100943.44;;;4.27;100.00
56928;BME280;60850;52.502;13.426;2022-11-15T04:50:11;100940.81;;;4.35;100.00
56928;BME280;60850;52.502;13.426;2022-11-15T04:52:40;100949.59;;;4.20;100.00
56928;BME280;60850;52.502;13.426;2022-11-15T04:55:09;100936.38;;;4.14;100.00
56928;BME280;60850;52.502;13.426;2022-11-15T04:57:37;100939.91;;;4.19;100.00
56928;BME280;60850;52.502;13.426;2022-11-15T05:00:05;100935.50;;;4.23;100.00
56928;BME280;60850;52.502;13.426;2022-11-15T05:02:32;100936.41;;;4.26;100.00
56928;BME280;60850;52.502;13.426;2022-11-15T05:05:13;100938.19;;;4.24;100.00
56928;BME280;60850;52.502;13.426;2022-11-15T05:07:40;100939.06;;;4.26;100.00
56928;BME280;60850;52.502;13.426;2022-11-15T05:10:09;100941.69;;;4.26;100.00
56928;BME280;60850;52.502;13.426;2022-11-15T05:12:36;100939.06;;;4.23;100.00
56928;BME280;60850;52.502;13.426;2022-11-15T05:15:04;100938.16;;;4.18;100.00
56928;BME280;60850;52.502;13.426;2022-11-15T05:17:31;100938.16;;;4.21;100.00
56928;BME280;60850;52.502;13.426;2022-11-15T05:19:58;100936.41;;;4.17;100.00
56928;BME280;60850;52.502;13.426;2022-11-15T05:22:25;100942.53;;;4.14;100.00
56928;BME280;60850;52.502;13.426;2022-11-15T05:24:52;100936.38;;;4.14;100.00
56928;BME280;60850;52.502;13.426;2022-11-15T05:27:21;100939.94;;;4.16;100.00
56928;BME280;60850;52.502;13.426;2022-11-15T05:29:48;100943.41;;;4.15;100.00
56928;BME280;60850;52.502;13.426;2022-11-15T05:32:16;100937.25;;;4.14;100.00
56928;BME280;60850;52.502;13.426;2022-11-15T05:34:44;100935.50;;;4.15;100.00
56928;BME280;60850;52.502;13.426;2022-11-15T05:37:12;100940.81;;;4.17;100.00
56928;BME280;60850;52.502;13.426;2022-11-15T05:39:39;100939.03;;;4.19;100.00
56928;BME280;60850;52.502;13.426;2022-11-15T05:42:08;100936.41;;;4.20;100.00
56928;BME280;60850;52.502;13.426;2022-11-15T05:44:39;100922.34;;;4.17;100.00
56928;BME280;60850;52.502;13.426;2022-11-15T05:47:09;100939.06;;;4.25;100.00
56928;BME280;60850;52.502;13.426;2022-11-15T05:49:38;100943.47;;;4.24;100.00
56928;BME280;60850;52.502;13.426;2022-11-15T05:52:09;100946.97;;;4.23;100.00
56928;BME280;60850;52.502;13.426;2022-11-15T05:54:38;100944.34;;;4.26;100.00
56928;BME280;60850;52.502;13.426;2022-11-15T05:57:06;100946.97;;;4.26;100.00
56928;BME280;60850;52.502;13.426;2022-11-15T05:59:33;100939.94;;;4.25;100.00
56928;BME280;60850;52.502;13.426;2022-11-15T06:02:02;100940.81;;;4.26;100.00
56928;BME280;60850;52.502;13.426;2022-11-15T06:04:29;100946.97;;;4.28;100.00
56928;BME280;60850;52.502;13.426;2022-11-15T06:06:58;100946.09;;;4.24;100.00
56928;BME280;60850;52.502;13.426;2022-11-15T06:09:25;100931.13;;;4.17;100.00
56928;BME280;60850;52.502;13.426;2022-11-15T06:11:52;100952.25;;;4.23;100.00
56928;BME280;60850;52.502;13.426;2022-11-15T06:14:19;100956.66;;;4.26;100.00
56928;BME280;60850;52.502;13.426;2022-11-15T06:16:46;100948.72;;;4.24;100.00
56928;BME280;60850;52.502;13.426;2022-11-15T06:19:14;100959.28;;;4.27;100.00
56928;BME280;60850;52.502;13.426;2022-11-15T06:21:41;100958.44;;;4.31;100.00
56928;BME280;60850;52.502;13.426;2022-11-15T06:24:08;100953.13;;;4.36;100.00
56928;BME280;60850;52.502;13.426;2022-11-15T06:26:35;100955.81;;;4.37;100.00
56928;BME280;60850;52.502;13.426;2022-11-15T06:29:02;100957.56;;;4.38;100.00
56928;BME280;60850;52.502;13.426;2022-11-15T06:31:30;100958.44;;;4.39;100.00
56928;BME280;60850;52.502;13.426;2022-11-15T06:33:57;100961.94;;;4.43;100.00
56928;BME280;60850;52.502;13.426;2022-11-15T06:36:25;100957.56;;;4.51;100.00
56928;BME280;60850;52.502;13.426;2022-11-15T06:38:52;100954.94;;;4.52;100.00
56928;BME280;60850;52.502;13.426;2022-11-15T06:41:20;100958.47;;;4.51;100.00
56928;BME280;60850;52.502;13.426;2022-11-15T06:43:47;100960.22;;;4.54;100.00
56928;BME280;60850;52.502;13.426;2022-11-15T06:46:14;100957.59;;;4.60;100.00
56928;BME280;60850;52.502;13.426;2022-11-15T06:48:41;100962.00;;;4.62;100.00
56928;BME280;60850;52.502;13.426;2022-11-15T06:51:08;100960.25;;;4.66;100.00
56928;BME280;60850;52.502;13.426;2022-11-15T06:53:36;100956.72;;;4.72;100.00
56928;BME280;60850;52.502;13.426;2022-11-15T06:56:05;100966.44;;;4.80;100.00
56928;BME280;60850;52.502;13.426;2022-11-15T06:58:33;100964.66;;;4.82;100.00
56928;BME280;60850;52.502;13.426;2022-11-15T07:01:01;100966.41;;;4.82;100.00
56928;BME280;60850;52.502;13.426;2022-11-15T07:03:28;100963.78;;;4.94;100.00
56928;BME280;60850;52.502;13.426;2022-11-15T07:05:57;100968.16;;;5.00;100.00
56928;BME280;60850;52.502;13.426;2022-11-15T07:08:26;100968.16;;;5.07;100.00
56928;BME280;60850;52.502;13.426;2022-11-15T07:10:57;100965.53;;;5.12;100.00
56928;BME280;60850;52.502;13.426;2022-11-15T07:13:25;100974.31;;;5.14;100.00
56928;BME280;60850;52.502;13.426;2022-11-15T07:15:52;100972.59;;;5.17;100.00
56928;BME280;60850;52.502;13.426;2022-11-15T07:18:19;100969.94;;;5.19;100.00
56928;BME280;60850;52.502;13.426;2022-11-15T07:20:46;100975.19;;;5.34;100.00
56928;BME280;60850;52.502;13.426;2022-11-15T07:23:13;100969.91;;;5.43;100.00
56928;BME280;60850;52.502;13.426;2022-11-15T07:25:40;100976.91;;;5.55;100.00
56928;BME280;60850;52.502;13.426;2022-11-15T07:28:08;100975.16;;;5.65;100.00
56928;BME280;60850;52.502;13.426;2022-11-15T07:30:35;100982.13;;;5.83;100.00
56928;BME280;60850;52.502;13.426;2022-11-15T07:33:02;100983.88;;;6.07;100.00
56928;BME280;60850;52.502;13.426;2022-11-15T07:35:30;100972.06;;;6.64;100.00
56928;BME280;60850;52.502;13.426;2022-11-15T07:37:58;100974.00;;;7.47;100.00
56928;BME280;60850;52.502;13.426;2022-11-15T07:40:26;100969.66;;;8.16;100.00
56928;BME280;60850;52.502;13.426;2022-11-15T07:42:59;100965.66;;;9.11;100.00
56928;BME280;60850;52.502;13.426;2022-11-15T07:45:27;100958.22;;;9.28;100.00
56928;BME280;60850;52.502;13.426;2022-11-15T07:47:55;100957.41;;;8.74;100.00
56928;BME280;60850;52.502;13.426;2022-11-15T07:50:23;100959.75;;;8.31;100.00
56928;BME280;60850;52.502;13.426;2022-11-15T07:52:53;100951.06;;;8.16;100.00
56928;BME280;60850;52.502;13.426;2022-11-15T07:55:21;100958.19;;;8.14;100.00
56928;BME280;60850;52.502;13.426;2022-11-15T07:57:48;100958.56;;;9.10;100.00
56928;BME280;60850;52.502;13.426;2022-11-15T08:00:16;100947.09;;;10.81;100.00
56928;BME280;60850;52.502;13.426;2022-11-15T08:02:45;100949.00;;;12.09;100.00
56928;BME280;60850;52.502;13.426;2022-11-15T08:05:13;100939.25;;;13.21;100.00
56928;BME280;60850;52.502;13.426;2022-11-15T08:07:40;100934.25;;;14.10;100.00
56928;BME280;60850;52.502;13.426;2022-11-15T08:10:08;100924.50;;;14.76;100.00
56928;BME280;60850;52.502;13.426;2022-11-15T08:12:35;100926.28;;;15.19;100.00
56928;BME280;60850;52.502;13.426;2022-11-15T08:15:02;100924.03;;;15.51;96.06
56928;BME280;60850;52.502;13.426;2022-11-15T08:17:29;100930.84;;;15.99;96.98
56928;BME280;60850;52.502;13.426;2022-11-15T08:19:59;100933.06;;;16.47;90.42
56928;BME280;60850;52.502;13.426;2022-11-15T08:22:26;100936.75;;;16.82;87.66
56928;BME280;60850;52.502;13.426;2022-11-15T08:24:53;100934.13;;;17.17;82.20
56928;BME280;60850;52.502;13.426;2022-11-15T08:27:20;100931.13;;;17.40;79.08
56928;BME280;60850;52.502;13.426;2022-11-15T08:29:49;100931.50;;;17.67;77.61
56928;BME280;60850;52.502;13.426;2022-11-15T08:32:16;100932.81;;;17.77;73.62
56928;BME280;60850;52.502;13.426;2022-11-15T08:34:43;100928.44;;;17.57;72.39
56928;BME280;60850;52.502;13.426;2022-11-15T08:37:11;100926.63;;;16.68;83.12
56928;BME280;60850;52.502;13.426;2022-11-15T08:39:38;100929.94;;;15.59;90.22
56928;BME280;60850;52.502;13.426;2022-11-15T08:42:05;100932.25;;;14.83;99.77
56928;BME280;60850;52.502;13.426;2022-11-15T08:44:32;100924.28;;;14.13;100.00
56928;BME280;60850;52.502;13.426;2022-11-15T08:46:59;100920.88;;;13.61;100.00
56928;BME280;60850;52.502;13.426;2022-11-15T08:49:26;100919.28;;;13.04;100.00
56928;BME280;60850;52.502;13.426;2022-11-15T08:51:53;100924.38;;;12.57;100.00
56928;BME280;60850;52.502;13.426;2022-11-15T08:54:22;100926.88;;;12.04;100.00
56928;BME280;60850;52.502;13.426;2022-11-15T08:56:48;100931.97;;;11.82;100.00
56928;BME280;60850;52.502;13.426;2022-11-15T08:59:16;100937.81;;;11.63;100.00
56928;BME280;60850;52.502;13.426;2022-11-15T09:01:42;100933.06;;;11.43;100.00
56928;BME280;60850;52.502;13.426;2022-11-15T09:04:10;100937.88;;;11.28;100.00
56928;BME280;60850;52.502;13.426;2022-11-15T09:06:36;100940.66;;;11.24;100.00
56928;BME280;60850;52.502;13.426;2022-11-15T09:09:04;100937.47;;;11.10;100.00
56928;BME280;60850;52.502;13.426;2022-11-15T09:11:32;100936.50;;;11.12;100.00
56928;BME280;60850;52.502;13.426;2022-11-15T09:13:59;100934.19;;;10.98;100.00
56928;BME280;60850;52.502;13.426;2022-11-15T09:16:26;100936.19;;;10.90;100.00
56928;BME280;60850;52.502;13.426;2022-11-15T09:18:53;100937.16;;;10.88;100.00
56928;BME280;60850;52.502;13.426;2022-11-15T09:21:20;100930.25;;;10.78;100.00
56928;BME280;60850;52.502;13.426;2022-11-15T09:23:50;100931.00;;;10.84;100.00
56928;BME280;60850;52.502;13.426;2022-11-15T09:26:18;100936.47;;;10.78;100.00
56928;BME280;60850;52.502;13.426;2022-11-15T09:28:47;100931.38;;;10.69;100.00
56928;BME280;60850;52.502;13.426;2022-11-15T09:31:13;100939.22;;;10.75;100.00
56928;BME280;60850;52.502;13.426;2022-11-15T09:33:43;100932.03;;;10.79;100.00
56928;BME280;60850;52.502;13.426;2022-11-15T09:36:10;100933.75;;;10.81;100.00
56928;BME280;60850;52.502;13.426;2022-11-15T09:38:38;100943.59;;;10.79;100.00
56928;BME280;60850;52.502;13.426;2022-11-15T09:41:27;100934.88;;;10.71;100.00
56928;BME280;60850;52.502;13.426;2022-11-15T09:44:07;100936.50;;;10.77;100.00
56928;BME280;60850;52.502;13.426;2022-11-15T09:46:44;100941.19;;;10.67;100.00
56928;BME280;60850;52.502;13.426;2022-11-15T09:49:17;100939.13;;;10.78;100.00
56928;BME280;60850;52.502;13.426;2022-11-15T09:51:45;100936.41;;;10.81;100.00
56928;BME280;60850;52.502;13.426;2022-11-15T09:54:21;100932.91;;;10.79;100.00
56928;BME280;60850;52.502;13.426;2022-11-15T09:56:50;100915.84;;;10.86;100.00
56928;BME280;60850;52.502;13.426;2022-11-15T09:59:33;100922.16;;;10.82;100.00
56928;BME280;60850;52.502;13.426;2022-11-15T10:02:17;100915.00;;;10.84;100.00
56928;BME280;60850;52.502;13.426;2022-11-15T10:04:47;100907.84;;;10.86;100.00
56928;BME280;60850;52.502;13.426;2022-11-15T10:07:17;100916.81;;;10.82;100.00
56928;BME280;60850;52.502;13.426;2022-11-15T10:09:49;100907.75;;;10.89;100.00
56928;BME280;60850;52.502;13.426;2022-11-15T10:12:17;100915.84;;;10.86;100.00
56928;BME280;60850;52.502;13.426;2022-11-15T10:14:49;100905.97;;;10.90;100.00
56928;BME280;60850;52.502;13.426;2022-11-15T10:20:17;100891.06;;;10.81;100.00
56928;BME280;60850;52.502;13.426;2022-11-15T10:22:47;100888.31;;;10.86;100.00
56928;BME280;60850;52.502;13.426;2022-11-15T10:25:19;100883.84;;;10.86;100.00
56928;BME280;60850;52.502;13.426;2022-11-15T10:27:52;100874.97;;;10.86;100.00
56928;BME280;60850;52.502;13.426;2022-11-15T10:30:21;100876.72;;;10.87;100.00
56928;BME280;60850;52.502;13.426;2022-11-15T10:32:49;100872.88;;;10.97;100.00
56928;BME280;60850;52.502;13.426;2022-11-15T10:35:19;100876.47;;;10.96;100.00
56928;BME280;60850;52.502;13.426;2022-11-15T10:37:47;100868.56;;;10.91;100.00
56928;BME280;60850;52.502;13.426;2022-11-15T10:40:20;100865.09;;;10.89;100.00
56928;BME280;60850;52.502;13.426;2022-11-15T10:42:48;100858.00;;;10.88;100.00
56928;BME280;60850;52.502;13.426;2022-11-15T10:45:28;100853.44;;;10.92;100.00
56928;BME280;60850;52.502;13.426;2022-11-15T10:48:20;100854.16;;;10.98;100.00
56928;BME280;60850;52.502;13.426;2022-11-15T10:50:49;100843.44;;;11.02;100.00
56928;BME280;60850;52.502;13.426;2022-11-15T10:53:23;100843.28;;;11.08;100.00
56928;BME280;60850;52.502;13.426;2022-11-15T10:55:53;100837.84;;;11.11;100.00
56928;BME280;60850;52.502;13.426;2022-11-15T10:58:33;100832.44;;;11.14;100.00
56928;BME280;60850;52.502;13.426;2022-11-15T11:01:14;100840.44;;;11.12;100.00
56928;BME280;60850;52.502;13.426;2022-11-15T11:03:43;100834.97;;;11.18;100.00
56928;BME280;60850;52.502;13.426;2022-11-15T11:06:13;100834.19;;;11.15;100.00
56928;BME280;60850;52.502;13.426;2022-11-15T11:08:53;100826.03;;;11.19;100.00
56928;BME280;60850;52.502;13.426;2022-11-15T11:11:21;100817.19;;;11.17;100.00
56928;BME280;60850;52.502;13.426;2022-11-15T11:13:49;100815.44;;;11.16;100.00
56928;BME280;60850;52.502;13.426;2022-11-15T11:16:24;100818.06;;;11.18;100.00
56928;BME280;60850;52.502;13.426;2022-11-15T11:19:03;100810.88;;;11.20;100.00
56928;BME280;60850;52.502;13.426;2022-11-15T11:21:40;100812.53;;;11.25;100.00
56928;BME280;60850;52.502;13.426;2022-11-15T11:24:14;100812.47;;;11.27;100.00
56928;BME280;60850;52.502;13.426;2022-11-15T11:27:01;100806.88;;;11.36;100.00
56928;BME280;60850;52.502;13.426;2022-11-15T11:29:41;100801.63;;;11.33;100.00
56928;BME280;60850;52.502;13.426;2022-11-15T11:32:26;100815.72;;;11.38;100.00
56928;BME280;60850;52.502;13.426;2022-11-15T11:34:58;100809.56;;;11.36;100.00
56928;BME280;60850;52.502;13.426;2022-11-15T11:37:30;100817.56;;;11.36;100.00
56928;BME280;60850;52.502;13.426;2022-11-15T11:40:20;100805.16;;;11.35;100.00
56928;BME280;60850;52.502;13.426;2022-11-15T11:42:55;100797.78;;;11.43;100.00
56928;BME280;60850;52.502;13.426;2022-11-15T11:45:40;100799.59;;;11.41;100.00
56928;BME280;60850;52.502;13.426;2022-11-15T11:48:15;100805.75;;;11.45;100.00
56928;BME280;60850;52.502;13.426;2022-11-15T11:50:46;100798.50;;;11.48;100.00
56928;BME280;60850;52.502;13.426;2022-11-15T11:53:21;100802.84;;;11.52;100.00
56928;BME280;60850;52.502;13.426;2022-11-15T11:55:53;100795.59;;;11.58;100.00
56928;BME280;60850;52.502;13.426;2022-11-15T11:58:35;100792.75;;;11.64;100.00
56928;BME280;60850;52.502;13.426;2022-11-15T12:01:10;100795.41;;;11.64;100.00
56928;BME280;60850;52.502;13.426;2022-11-15T12:03:43;100786.28;;;11.71;100.00
56928;BME280;60850;52.502;13.426;2022-11-15T12:06:22;100785.19;;;11.76;100.00
56928;BME280;60850;52.502;13.426;2022-11-15T12:08:53;100782.59;;;11.75;100.00
56928;BME280;60850;52.502;13.426;2022-11-15T12:11:28;100780.84;;;11.74;100.00
56928;BME280;60850;52.502;13.426;2022-11-15T12:13:59;100767.44;;;11.75;100.00
56928;BME280;60850;52.502;13.426;2022-11-15T12:16:29;100770.91;;;11.79;100.00
56928;BME280;60850;52.502;13.426;2022-11-15T12:19:02;100760.25;;;11.77;100.00
56928;BME280;60850;52.502;13.426;2022-11-15T12:21:36;100771.81;;;11.78;100.00
56928;BME280;60850;52.502;13.426;2022-11-15T12:24:13;100769.97;;;11.80;100.00
56928;BME280;60850;52.502;13.426;2022-11-15T12:26:46;100760.88;;;11.87;100.00
56928;BME280;60850;52.502;13.426;2022-11-15T12:29:18;100759.19;;;11.85;100.00
56928;BME280;60850;52.502;13.426;2022-11-15T12:31:50;100754.47;;;11.93;100.00
56928;BME280;60850;52.502;13.426;2022-11-15T12:34:47;100757.91;;;11.96;100.00
56928;BME280;60850;52.502;13.426;2022-11-15T12:37:49;100754.22;;;12.00;100.00
56928;BME280;60850;52.502;13.426;2022-11-15T12:40:22;100754.22;;;12.00;100.00
56928;BME280;60850;52.502;13.426;2022-11-15T12:43:36;100751.44;;;12.03;100.00
56928;BME280;60850;52.502;13.426;2022-11-15T12:46:11;100746.25;;;11.99;100.00
56928;BME280;60850;52.502;13.426;2022-11-15T12:48:47;100737.50;;;11.94;100.00
56928;BME280;60850;52.502;13.426;2022-11-15T12:51:19;100732.03;;;11.98;100.00
56928;BME280;60850;52.502;13.426;2022-11-15T12:53:46;100727.56;;;11.99;100.00
56928;BME280;60850;52.502;13.426;2022-11-15T12:56:31;100727.50;;;12.00;100.00
56928;BME280;60850;52.502;13.426;2022-11-15T12:58:59;100732.69;;;12.05;100.00
56928;BME280;60850;52.502;13.426;2022-11-15T13:01:57;100725.41;;;12.10;100.00